createdAt,value
2024-03-12T00:02:47.746Z,101587.88
2024-03-12T00:05:35.408Z,101592.97
2024-03-12T00:08:23.022Z,101587.50
2024-03-12T00:11:11.504Z,101590.25
2024-03-12T00:13:59.369Z,101595.56
2024-03-12T00:16:47.123Z,101590.47
2024-03-12T00:19:35.156Z,101582.69
2024-03-12T00:22:23.648Z,101578.91
2024-03-12T00:25:11.377Z,101584.16
2024-03-12T00:28:00.274Z,101574.09
2024-03-12T00:30:48.041Z,101578.22
2024-03-12T00:33:35.836Z,101576.09
2024-03-12T00:36:23.565Z,101570.00
2024-03-12T00:39:11.832Z,101570.38
2024-03-12T00:42:00.052Z,101574.22
2024-03-12T00:44:49.716Z,101569.41
2024-03-12T00:47:38.124Z,101562.03
2024-03-12T00:50:25.971Z,101564.41
2024-03-12T00:53:14.441Z,101568.59
2024-03-12T00:56:04.475Z,101563.03
2024-03-12T00:58:53.277Z,101563.75
2024-03-12T01:01:40.914Z,101559.97
2024-03-12T01:04:28.513Z,101554.38
2024-03-12T01:07:17.591Z,101554.25
2024-03-12T01:10:06.972Z,101556.44
2024-03-12T01:12:56.156Z,101547.75
2024-03-12T01:15:43.864Z,101548.13
2024-03-12T01:18:33.069Z,101535.09
2024-03-12T01:21:21.690Z,101533.22
2024-03-12T01:24:09.388Z,101536.94
2024-03-12T01:26:56.993Z,101539.63
2024-03-12T01:29:44.775Z,101538.72
2024-03-12T01:32:32.451Z,101542.41
2024-03-12T01:35:22.281Z,101534.25
2024-03-12T01:38:11.678Z,101536.19
2024-03-12T01:41:00.405Z,101528.88
2024-03-12T01:44:00.687Z,101529.91
2024-03-12T01:46:48.957Z,101537.72
2024-03-12T01:49:37.502Z,101537.63
2024-03-12T01:52:25.329Z,101536.84
2024-03-12T01:55:14.104Z,101533.34
2024-03-12T01:58:01.968Z,101540.28
2024-03-12T02:00:50.196Z,101535.97
2024-03-12T02:03:38.017Z,101539.38
2024-03-12T02:06:26.220Z,101529.56
2024-03-12T02:09:13.970Z,101531.78
2024-03-12T02:12:01.658Z,101525.41
2024-03-12T02:14:50.312Z,101519.66
2024-03-12T02:17:38.173Z,101520.72
2024-03-12T02:20:28.191Z,101521.38
2024-03-12T02:23:16.406Z,101514.50
2024-03-12T02:26:04.610Z,101514.78
2024-03-12T02:28:52.702Z,101524.50
2024-03-12T02:31:40.723Z,101516.28
2024-03-12T02:34:30.486Z,101518.25
2024-03-12T02:37:18.316Z,101517.03
2024-03-12T02:40:08.844Z,101517.56
2024-03-12T02:42:56.707Z,101514.25
2024-03-12T02:45:45.279Z,101513.19
2024-03-12T02:48:33.055Z,101513.47
2024-03-12T02:51:20.801Z,101510.97
2024-03-12T02:54:08.502Z,101517.41
2024-03-12T02:56:56.160Z,101514.97
2024-03-12T02:59:44.800Z,101505.91
2024-03-12T03:02:34.435Z,101513.31
2024-03-12T03:05:22.104Z,101505.00
2024-03-12T03:08:09.724Z,101510.09
2024-03-12T03:10:57.407Z,101508.50
2024-03-12T03:13:45.021Z,101509.41
2024-03-12T03:16:34.443Z,101510.75
2024-03-12T03:19:22.205Z,101510.44
2024-03-12T03:22:10.840Z,101509.41
2024-03-12T03:24:58.738Z,101502.97
2024-03-12T03:27:46.332Z,101505.50
2024-03-12T03:30:33.942Z,101501.75
2024-03-12T03:33:23.767Z,101503.31
2024-03-12T03:36:14.778Z,101504.56
2024-03-12T03:39:02.579Z,101503.50
2024-03-12T03:41:50.589Z,101505.91
2024-03-12T03:44:38.171Z,101505.59
2024-03-12T03:47:25.936Z,101497.94
2024-03-12T03:50:13.922Z,101500.44
2024-03-12T03:53:01.591Z,101501.34
2024-03-12T03:55:50.056Z,101497.97
2024-03-12T03:58:37.755Z,101487.44
2024-03-12T04:01:25.837Z,101486.13
2024-03-12T04:04:16.925Z,101482.81
2024-03-12T04:07:06.294Z,101480.47
2024-03-12T04:09:56.110Z,101478.81
2024-03-12T04:12:46.053Z,101482.47
2024-03-12T04:15:35.422Z,101482.28
2024-03-12T04:18:24.015Z,101477.56
2024-03-12T04:21:27.673Z,101480.53
2024-03-12T04:24:15.425Z,101474.47
2024-03-12T04:27:03.270Z,101469.41
2024-03-12T04:29:50.903Z,101468.31
2024-03-12T04:32:42.049Z,101475.00
2024-03-12T04:35:29.773Z,101480.41
2024-03-12T04:38:20.018Z,101482.47
2024-03-12T04:41:38.668Z,101484.53
2024-03-12T04:44:41.506Z,101477.16
2024-03-12T04:47:29.093Z,101473.03
2024-03-12T04:50:16.722Z,101470.84
2024-03-12T04:53:04.794Z,101473.97
2024-03-12T04:55:52.534Z,101468.91
2024-03-12T04:58:40.241Z,101469.78
2024-03-12T05:01:28.055Z,101466.22
2024-03-12T05:04:22.245Z,101474.91
2024-03-12T05:07:13.036Z,101470.44
2024-03-12T05:10:01.133Z,101469.78
2024-03-12T05:12:51.864Z,101469.00
2024-03-12T05:15:40.641Z,101479.78
2024-03-12T05:18:28.249Z,101470.75
2024-03-12T05:21:15.984Z,101469.22
2024-03-12T05:24:04.728Z,101477.06
2024-03-12T05:26:55.401Z,101471.13
2024-03-12T05:29:53.615Z,101473.84
2024-03-12T05:32:42.589Z,101469.91
2024-03-12T05:35:32.756Z,101475.97
2024-03-12T05:38:32.698Z,101482.09
2024-03-12T05:41:27.221Z,101485.56
2024-03-12T05:44:33.385Z,101479.84
2024-03-12T05:47:40.784Z,101489.22
2024-03-12T05:50:28.721Z,101484.84
2024-03-12T05:53:16.934Z,101483.50
2024-03-12T05:56:05.774Z,101488.75
2024-03-12T05:58:53.430Z,101485.44
2024-03-12T06:01:41.223Z,101488.38
2024-03-12T06:04:33.340Z,101490.47
2024-03-12T06:07:21.442Z,101486.47
2024-03-12T06:10:10.267Z,101484.56
2024-03-12T06:12:58.090Z,101481.09
2024-03-12T06:15:45.766Z,101480.72
2024-03-12T06:18:33.620Z,101478.28
2024-03-12T06:21:22.075Z,101480.47
2024-03-12T06:24:09.908Z,101487.00
2024-03-12T06:26:58.417Z,101477.78
2024-03-12T06:29:52.686Z,101475.19
2024-03-12T06:32:40.486Z,101468.41
2024-03-12T06:35:29.239Z,101471.16
2024-03-12T06:38:17.351Z,101476.66
2024-03-12T06:41:08.505Z,101473.13
2024-03-12T06:43:56.181Z,101476.81
2024-03-12T06:46:46.338Z,101487.31
2024-03-12T06:49:34.859Z,101493.94
2024-03-12T06:52:27.906Z,101487.50
2024-03-12T06:55:18.428Z,101494.38
2024-03-12T06:58:08.867Z,101487.22
2024-03-12T07:00:57.400Z,101489.16
2024-03-12T07:03:46.530Z,101486.09
2024-03-12T07:06:35.654Z,101487.84
2024-03-12T07:09:27.708Z,101486.47
2024-03-12T07:12:15.410Z,101483.16
2024-03-12T07:15:06.577Z,101489.59
2024-03-12T07:17:54.416Z,101484.88
2024-03-12T07:20:42.093Z,101494.44
2024-03-12T07:23:29.689Z,101494.22
2024-03-12T07:26:17.888Z,101497.41
2024-03-12T07:29:08.092Z,101491.34
2024-03-12T07:31:55.752Z,101500.25
2024-03-12T07:34:43.727Z,101500.59
2024-03-12T07:37:31.419Z,101496.56
2024-03-12T07:40:19.716Z,101503.09
2024-03-12T07:43:07.596Z,101503.56
2024-03-12T07:45:55.447Z,101502.91
2024-03-12T07:48:43.667Z,101505.00
2024-03-12T07:51:31.756Z,101512.59
2024-03-12T07:54:22.719Z,101500.09
2024-03-12T07:57:10.569Z,101509.41
2024-03-12T07:59:59.132Z,101515.34
2024-03-12T08:02:47.244Z,101511.94
2024-03-12T08:05:35.491Z,101506.47
2024-03-12T08:08:23.141Z,101518.16
2024-03-12T08:11:10.816Z,101508.47
2024-03-12T08:13:58.489Z,101511.19
2024-03-12T08:16:46.342Z,101516.16
2024-03-12T08:19:35.170Z,101513.75
2024-03-12T08:22:23.695Z,101513.22
2024-03-12T08:25:12.801Z,101511.41
2024-03-12T08:28:00.727Z,101511.63
2024-03-12T08:30:48.493Z,101513.00
2024-03-12T08:33:36.334Z,101509.44
2024-03-12T08:36:24.219Z,101507.69
2024-03-12T08:39:14.977Z,101510.69
2024-03-12T08:42:03.316Z,101511.22
2024-03-12T08:44:50.897Z,101506.53
2024-03-12T08:47:39.290Z,101506.56
2024-03-12T08:50:27.079Z,101505.78
2024-03-12T08:53:16.037Z,101509.59
2024-03-12T08:56:04.990Z,101503.44
2024-03-12T08:58:53.309Z,101503.94
2024-03-12T09:01:41.139Z,101502.63
2024-03-12T09:04:31.590Z,101496.69
2024-03-12T09:07:19.374Z,101491.09
2024-03-12T09:10:12.986Z,101496.72
2024-03-12T09:13:01.209Z,101479.97
2024-03-12T09:15:53.230Z,101485.69
2024-03-12T09:18:43.511Z,101490.59
2024-03-12T09:21:31.960Z,101487.38
2024-03-12T09:24:20.317Z,101479.97
2024-03-12T09:27:08.536Z,101479.84
2024-03-12T09:29:57.705Z,101483.63
2024-03-12T09:32:45.451Z,101473.69
2024-03-12T09:35:33.625Z,101477.06
2024-03-12T09:38:21.523Z,101473.34
2024-03-12T09:41:10.521Z,101474.38
2024-03-12T09:43:58.709Z,101470.91
2024-03-12T09:46:47.536Z,101471.44
2024-03-12T09:49:36.355Z,101477.53
2024-03-12T09:52:24.077Z,101471.03
2024-03-12T09:55:12.708Z,101472.69
2024-03-12T09:58:00.524Z,101471.50
2024-03-12T10:00:48.563Z,101474.94
2024-03-12T10:03:39.209Z,101472.47
2024-03-12T10:06:27.452Z,101465.97
2024-03-12T10:09:18.699Z,101469.94
2024-03-12T10:12:09.827Z,101461.66
2024-03-12T10:14:57.683Z,101464.56
2024-03-12T10:17:57.706Z,101454.13
2024-03-12T10:20:46.245Z,101461.44
2024-03-12T10:23:35.248Z,101458.69
2024-03-12T10:26:26.622Z,101462.13
2024-03-12T10:29:15.084Z,101455.09
2024-03-12T10:32:22.933Z,101454.25
2024-03-12T10:35:20.758Z,101461.75
2024-03-12T10:38:12.374Z,101460.03
2024-03-12T10:41:16.810Z,101460.50
2024-03-12T10:44:08.824Z,101460.69
2024-03-12T10:47:00.505Z,101468.50
2024-03-12T10:49:51.061Z,101461.25
2024-03-12T10:52:39.624Z,101468.72
2024-03-12T10:55:28.159Z,101465.31
2024-03-12T10:58:16.818Z,101462.63
2024-03-12T11:01:06.357Z,101461.63
2024-03-12T11:04:00.098Z,101461.06
2024-03-12T11:06:49.702Z,101466.13
2024-03-12T11:09:38.056Z,101467.38
2024-03-12T11:12:26.325Z,101464.53
2024-03-12T11:15:14.890Z,101467.66
2024-03-12T11:18:03.380Z,101466.63
2024-03-12T11:20:51.840Z,101475.59
2024-03-12T11:23:39.456Z,101470.28
2024-03-12T11:26:37.058Z,101481.94
2024-03-12T11:29:57.466Z,101481.88
2024-03-12T11:32:45.243Z,101480.91
2024-03-12T11:35:33.441Z,101482.06
2024-03-12T11:38:28.905Z,101489.75
2024-03-12T11:41:17.750Z,101484.44
2024-03-12T11:44:05.457Z,101494.81
2024-03-12T11:46:53.396Z,101495.97
2024-03-12T11:49:42.721Z,101484.75
2024-03-12T11:52:33.031Z,101484.09
2024-03-12T11:55:50.792Z,101486.44
2024-03-12T11:58:45.749Z,101493.00
2024-03-12T12:01:35.194Z,101486.09
2024-03-12T12:04:23.340Z,101494.28
2024-03-12T12:07:11.155Z,101490.72
2024-03-12T12:09:59.072Z,101485.50
2024-03-12T12:12:49.178Z,101484.47
2024-03-12T12:15:37.138Z,101477.34
2024-03-12T12:18:27.092Z,101486.47
2024-03-12T12:21:15.836Z,101478.44
2024-03-12T12:24:04.797Z,101486.75
2024-03-12T12:26:54.999Z,101477.81
2024-03-12T12:29:42.734Z,101476.03
2024-03-12T12:32:30.569Z,101479.28
2024-03-12T12:35:20.958Z,101474.22
2024-03-12T12:38:10.824Z,101477.63
2024-03-12T12:40:58.514Z,101470.13
2024-03-12T12:43:46.419Z,101471.72
2024-03-12T12:46:36.589Z,101471.47
2024-03-12T12:49:26.179Z,101476.03
2024-03-12T12:52:14.707Z,101471.16
2024-03-12T12:55:02.387Z,101470.13
2024-03-12T12:57:57.880Z,101463.34
2024-03-12T13:00:47.031Z,101466.47
2024-03-12T13:03:36.333Z,101469.63
2024-03-12T13:06:24.452Z,101465.72
2024-03-12T13:09:12.076Z,101468.09
2024-03-12T13:12:00.817Z,101465.25
2024-03-12T13:14:48.615Z,101463.63
2024-03-12T13:17:36.249Z,101466.94
2024-03-12T13:20:25.627Z,101465.47
2024-03-12T13:23:13.415Z,101467.34
2024-03-12T13:26:02.436Z,101468.75
2024-03-12T13:28:52.388Z,101459.88
2024-03-12T13:31:41.386Z,101458.34
2024-03-12T13:34:29.124Z,101466.06
2024-03-12T13:37:16.840Z,101465.03
2024-03-12T13:40:06.405Z,101457.19
2024-03-12T13:42:54.064Z,101463.34
2024-03-12T13:45:42.047Z,101462.72
2024-03-12T13:48:30.199Z,101459.94
2024-03-12T13:51:17.785Z,101448.59
2024-03-12T13:54:09.459Z,101460.09
2024-03-12T13:56:57.528Z,101463.34
2024-03-12T13:59:45.647Z,101467.53
2024-03-12T14:02:33.718Z,101466.25
2024-03-12T14:05:22.118Z,101462.66
2024-03-12T14:08:09.945Z,101478.66
2024-03-12T14:11:00.754Z,101468.69
2024-03-12T14:13:50.975Z,101474.56
2024-03-12T14:16:38.719Z,101473.97
2024-03-12T14:19:26.666Z,101467.66
2024-03-12T14:22:14.552Z,101474.13
2024-03-12T14:25:02.437Z,101465.00
2024-03-12T14:27:50.881Z,101467.69
2024-03-12T14:30:41.685Z,101468.06
2024-03-12T14:33:30.096Z,101464.56
2024-03-12T14:36:18.337Z,101480.03
2024-03-12T14:39:08.881Z,101477.94
2024-03-12T14:41:57.029Z,101477.09
2024-03-12T14:44:44.809Z,101468.47
2024-03-12T14:47:33.649Z,101473.16
2024-03-12T14:50:23.538Z,101469.78
2024-03-12T14:53:11.270Z,101474.78
2024-03-12T14:56:01.835Z,101467.47
2024-03-12T14:58:49.686Z,101474.66
2024-03-12T15:01:37.488Z,101472.31
2024-03-12T15:04:25.159Z,101471.13
2024-03-12T15:07:14.649Z,101466.16
2024-03-12T15:10:03.626Z,101470.00
2024-03-12T15:12:53.633Z,101476.13
2024-03-12T15:15:43.040Z,101463.31
2024-03-12T15:18:32.824Z,101474.31
2024-03-12T15:21:21.745Z,101469.38
2024-03-12T15:24:09.375Z,101470.16
2024-03-12T15:26:58.589Z,101471.63
2024-03-12T15:29:46.282Z,101472.63
2024-03-12T15:32:34.093Z,101473.16
2024-03-12T15:35:21.755Z,101466.84
2024-03-12T15:38:09.424Z,101469.94
2024-03-12T15:40:58.612Z,101472.31
2024-03-12T15:43:46.537Z,101470.25
2024-03-12T15:46:34.346Z,101475.81
2024-03-12T15:49:22.140Z,101472.59
2024-03-12T15:52:09.893Z,101470.75
2024-03-12T15:54:57.812Z,101470.38
2024-03-12T15:57:47.066Z,101469.53
2024-03-12T16:00:35.565Z,101467.03
2024-03-12T16:03:25.085Z,101473.72
2024-03-12T16:06:15.797Z,101477.19
2024-03-12T16:09:03.839Z,101472.38
2024-03-12T16:11:53.340Z,101479.47
2024-03-12T16:14:41.999Z,101479.03
2024-03-12T16:17:35.834Z,101484.69
2024-03-12T16:20:23.777Z,101490.84
2024-03-12T16:23:12.348Z,101470.63
2024-03-12T16:26:00.001Z,101475.41
2024-03-12T16:28:47.734Z,101461.88
2024-03-12T16:31:35.501Z,101468.59
2024-03-12T16:34:26.990Z,101469.13
2024-03-12T16:37:14.951Z,101473.31
2024-03-12T16:40:02.812Z,101465.72
2024-03-12T16:42:51.548Z,101462.47
2024-03-12T16:45:39.336Z,101465.06
2024-03-12T16:48:27.420Z,101470.94
2024-03-12T16:51:16.362Z,101470.72
2024-03-12T16:54:04.110Z,101466.34
2024-03-12T16:56:53.174Z,101467.44
2024-03-12T16:59:40.959Z,101470.53
2024-03-12T17:02:39.738Z,101478.41
2024-03-12T17:05:27.981Z,101476.78
2024-03-12T17:08:15.647Z,101474.66
2024-03-12T17:11:05.020Z,101470.50
2024-03-12T17:13:53.060Z,101478.72
2024-03-12T17:16:40.865Z,101476.91
2024-03-12T17:19:28.685Z,101474.91
2024-03-12T17:22:16.597Z,101481.06
2024-03-12T17:25:06.004Z,101478.19
2024-03-12T17:27:54.317Z,101475.53
2024-03-12T17:30:42.761Z,101480.09
2024-03-12T17:33:30.508Z,101475.44
2024-03-12T17:36:18.736Z,101490.25
2024-03-12T17:39:11.062Z,101489.91
2024-03-12T17:41:59.364Z,101490.53
2024-03-12T17:44:47.786Z,101500.00
2024-03-12T17:47:36.321Z,101505.72
2024-03-12T17:50:25.180Z,101498.75
2024-03-12T17:53:13.073Z,101495.41
2024-03-12T17:56:01.976Z,101497.75
2024-03-12T17:58:52.559Z,101499.03
2024-03-12T18:01:41.189Z,101500.31
2024-03-12T18:04:30.203Z,101499.91
2024-03-12T18:07:24.767Z,101494.41
2024-03-12T18:10:17.108Z,101499.19
2024-03-12T18:13:04.906Z,101488.09
2024-03-12T18:15:53.201Z,101491.09
2024-03-12T18:18:40.876Z,101486.28
2024-03-12T18:21:28.754Z,101491.00
2024-03-12T18:24:16.475Z,101498.88
2024-03-12T18:27:04.434Z,101496.00
2024-03-12T18:29:53.505Z,101499.28
2024-03-12T18:32:41.399Z,101498.72
2024-03-12T18:35:29.867Z,101498.53
2024-03-12T18:38:17.566Z,101505.81
2024-03-12T18:41:05.204Z,101498.03
2024-03-12T18:43:52.869Z,101501.66
2024-03-12T18:46:40.528Z,101501.47
2024-03-12T18:49:28.665Z,101501.81
2024-03-12T18:52:16.430Z,101505.28
2024-03-12T18:55:05.242Z,101503.38
2024-03-12T18:57:53.440Z,101507.31
2024-03-12T19:00:42.026Z,101509.22
2024-03-12T19:03:42.714Z,101505.66
2024-03-12T19:06:30.715Z,101508.34
2024-03-12T19:09:21.252Z,101511.09
2024-03-12T19:12:11.806Z,101500.19
2024-03-12T19:14:59.599Z,101514.56
2024-03-12T19:17:50.251Z,101502.88
2024-03-12T19:20:38.206Z,101503.88
2024-03-12T19:23:26.085Z,101503.47
2024-03-12T19:26:15.439Z,101512.47
2024-03-12T19:29:03.110Z,101507.44
2024-03-12T19:31:51.269Z,101513.53
2024-03-12T19:34:39.200Z,101501.06
2024-03-12T19:37:28.579Z,101502.50
2024-03-12T19:40:22.697Z,101503.97
2024-03-12T19:43:10.893Z,101504.69
2024-03-12T19:46:01.705Z,101512.41
2024-03-12T19:51:38.076Z,101507.19
2024-03-12T19:57:14.945Z,101503.38
2024-03-12T20:00:13.425Z,101500.06
2024-03-12T20:03:03.483Z,101499.56
2024-03-12T20:05:51.238Z,101499.19
2024-03-12T20:08:40.196Z,101503.59
2024-03-12T20:11:27.902Z,101503.41
2024-03-12T20:14:17.086Z,101504.25
2024-03-12T20:17:08.416Z,101509.19
2024-03-12T20:19:56.093Z,101513.06
2024-03-12T20:22:44.311Z,101497.88
2024-03-12T20:25:33.003Z,101508.41
2024-03-12T20:28:20.798Z,101501.09
2024-03-12T20:31:08.507Z,101496.72
2024-03-12T20:33:56.203Z,101500.94
2024-03-12T20:36:46.532Z,101501.19
2024-03-12T20:39:39.097Z,101504.00
2024-03-12T20:42:30.628Z,101496.78
2024-03-12T20:45:22.910Z,101503.09
2024-03-12T20:48:11.770Z,101508.28
2024-03-12T20:50:59.897Z,101508.56
2024-03-12T20:53:47.558Z,101512.88
2024-03-12T20:56:35.650Z,101523.44
2024-03-12T20:59:24.880Z,101515.28
2024-03-12T21:02:15.217Z,101519.28
2024-03-12T21:05:02.857Z,101517.94
2024-03-12T21:07:52.758Z,101514.47
2024-03-12T21:10:44.576Z,101513.13
2024-03-12T21:13:32.440Z,101517.16
2024-03-12T21:16:20.715Z,101515.28
2024-03-12T21:19:09.281Z,101487.44
2024-03-12T21:21:57.259Z,101506.41
2024-03-12T21:24:45.225Z,101512.97
2024-03-12T21:27:32.975Z,101518.66
2024-03-12T21:30:23.074Z,101501.22
2024-03-12T21:33:12.557Z,101509.94
2024-03-12T21:36:00.540Z,101504.97
2024-03-12T21:38:49.275Z,101505.91
2024-03-12T21:41:37.135Z,101511.53
2024-03-12T21:44:26.516Z,101515.16
2024-03-12T21:47:14.743Z,101513.41
2024-03-12T21:50:03.970Z,101514.44
2024-03-12T21:52:52.070Z,101506.28
2024-03-12T21:55:40.399Z,101509.41
2024-03-12T21:58:28.183Z,101503.91
2024-03-12T22:01:16.049Z,101512.16
2024-03-12T22:04:03.934Z,101509.69
2024-03-12T22:06:51.664Z,101509.63
2024-03-12T22:09:39.444Z,101513.41
2024-03-12T22:12:27.097Z,101509.19
2024-03-12T22:15:16.263Z,101506.31
2024-03-12T22:18:04.783Z,101505.56
2024-03-12T22:20:52.467Z,101512.59
2024-03-12T22:23:40.799Z,101509.13
2024-03-12T22:26:30.227Z,101512.88
2024-03-12T22:29:19.080Z,101509.63
2024-03-12T22:32:09.708Z,101515.13
2024-03-12T22:35:00.924Z,101513.75
2024-03-12T22:37:49.536Z,101520.03
2024-03-12T22:40:37.547Z,101517.34
2024-03-12T22:43:27.570Z,101523.09
2024-03-12T22:46:15.347Z,101522.25
2024-03-12T22:49:03.910Z,101520.38
2024-03-12T22:51:56.150Z,101512.59
2024-03-12T22:54:43.981Z,101515.38
2024-03-12T22:57:36.317Z,101512.72
2024-03-12T23:00:29.797Z,101517.09
2024-03-12T23:03:17.971Z,101515.00
2024-03-12T23:06:07.129Z,101506.63
2024-03-12T23:08:55.200Z,101505.88
2024-03-12T23:11:43.069Z,101512.53
2024-03-12T23:14:31.080Z,101505.78
2024-03-12T23:17:18.664Z,101499.88
2024-03-12T23:20:07.795Z,101503.63
2024-03-12T23:22:55.355Z,101504.84
2024-03-12T23:25:43.551Z,101512.91
2024-03-12T23:28:31.158Z,101503.91
2024-03-12T23:31:20.023Z,101500.53
2024-03-12T23:34:07.778Z,101505.78
2024-03-12T23:36:55.513Z,101520.50
2024-03-12T23:39:44.084Z,101511.38
2024-03-12T23:42:31.794Z,101510.59
2024-03-12T23:45:19.788Z,101505.25
2024-03-12T23:48:07.591Z,101508.47
2024-03-12T23:50:55.336Z,101514.47
2024-03-12T23:53:43.127Z,101512.88
2024-03-12T23:56:30.752Z,101518.16
2024-03-12T23:59:19.031Z,101518.00
